createdAt,value
2018-08-03T00:01:27.969Z,84.15
2018-08-03T00:03:56.509Z,82.71
2018-08-03T00:06:25.998Z,82.36
2018-08-03T00:08:54.535Z,82.92
2018-08-03T00:11:23.140Z,83.71
2018-08-03T00:13:51.839Z,83.02
2018-08-03T00:16:20.420Z,84.95
2018-08-03T00:18:48.991Z,84.37
2018-08-03T00:21:17.585Z,83.78
2018-08-03T00:23:46.138Z,85.32
2018-08-03T00:26:14.769Z,84.31
2018-08-03T00:28:43.319Z,85.44
2018-08-03T00:31:12.504Z,84.34
2018-08-03T00:33:41.064Z,86.07
2018-08-03T00:36:09.640Z,87.62
2018-08-03T00:38:38.216Z,85.79
2018-08-03T00:41:06.813Z,86.52
2018-08-03T00:43:35.371Z,86.77
2018-08-03T00:46:04.014Z,85.81
2018-08-03T00:48:32.573Z,87.56
2018-08-03T00:51:01.214Z,88.75
2018-08-03T00:53:29.800Z,89.64
2018-08-03T00:55:58.364Z,88.47
2018-08-03T00:58:26.961Z,86.80
2018-08-03T01:00:55.515Z,88.08
2018-08-03T01:03:24.061Z,87.25
2018-08-03T01:05:52.636Z,87.34
2018-08-03T01:08:21.163Z,86.83
2018-08-03T01:10:49.668Z,86.24
2018-08-03T01:13:18.217Z,88.46
2018-08-03T01:15:46.704Z,87.24
2018-08-03T01:18:15.236Z,85.11
2018-08-03T01:20:43.752Z,87.07
2018-08-03T01:23:12.285Z,90.05
2018-08-03T01:25:40.782Z,87.68
2018-08-03T01:28:09.325Z,87.29
2018-08-03T01:30:37.860Z,86.56
2018-08-03T01:33:06.484Z,86.70
2018-08-03T01:35:34.995Z,87.13
2018-08-03T01:38:03.506Z,87.50
2018-08-03T01:40:31.993Z,86.30
2018-08-03T01:43:00.607Z,88.44
2018-08-03T01:45:29.208Z,88.49
2018-08-03T01:47:57.764Z,88.55
2018-08-03T01:50:26.272Z,89.03
2018-08-03T01:52:54.820Z,89.56
2018-08-03T01:55:23.788Z,90.48
2018-08-03T01:57:52.529Z,88.72
2018-08-03T02:00:21.376Z,87.50
2018-08-03T02:02:50.108Z,88.07
2018-08-03T02:05:18.613Z,86.56
2018-08-03T02:07:47.175Z,86.25
2018-08-03T02:10:15.701Z,86.20
2018-08-03T02:12:44.220Z,87.53
2018-08-03T02:15:12.775Z,89.70
2018-08-03T02:17:41.308Z,89.92
2018-08-03T02:20:09.977Z,87.74
2018-08-03T02:22:38.515Z,87.37
2018-08-03T02:25:07.326Z,87.35
2018-08-03T02:27:35.865Z,87.55
2018-08-03T02:30:04.973Z,86.72
2018-08-03T02:32:33.532Z,86.72
2018-08-03T02:35:02.049Z,87.86
2018-08-03T02:37:30.601Z,89.50
2018-08-03T02:39:59.104Z,87.74
2018-08-03T02:42:27.636Z,88.88
2018-08-03T02:44:56.200Z,87.90
2018-08-03T02:47:24.717Z,89.35
2018-08-03T02:49:53.249Z,88.24
2018-08-03T02:52:21.744Z,86.74
2018-08-03T02:54:50.343Z,90.31
2018-08-03T02:57:19.118Z,90.52
2018-08-03T02:59:47.656Z,87.30
2018-08-03T03:02:16.153Z,87.15
2018-08-03T03:04:44.692Z,86.41
2018-08-03T03:07:14.248Z,87.17
2018-08-03T03:09:42.767Z,87.54
2018-08-03T03:12:11.351Z,88.53
2018-08-03T03:14:39.899Z,88.67
2018-08-03T03:17:08.417Z,89.21
2018-08-03T03:19:37.231Z,87.77
2018-08-03T03:22:05.771Z,86.67
2018-08-03T03:24:34.337Z,87.43
2018-08-03T03:27:02.857Z,86.08
2018-08-03T03:29:31.389Z,87.59
2018-08-03T03:31:59.941Z,89.21
2018-08-03T03:34:28.472Z,90.66
2018-08-03T03:36:56.964Z,89.53
2018-08-03T03:39:25.506Z,88.46
2018-08-03T03:41:54.000Z,87.56
2018-08-03T03:44:22.600Z,88.35
2018-08-03T03:46:51.108Z,88.10
2018-08-03T03:49:19.635Z,89.20
2018-08-03T03:51:48.148Z,91.03
2018-08-03T03:54:16.701Z,90.68
2018-08-03T03:56:48.413Z,87.86
2018-08-03T03:59:16.964Z,88.36
2018-08-03T04:01:45.484Z,89.94
2018-08-03T04:04:14.385Z,90.17
2018-08-03T04:06:42.894Z,88.18
2018-08-03T04:09:13.012Z,86.13
2018-08-03T04:11:42.053Z,86.97
2018-08-03T04:14:10.767Z,86.52
2018-08-03T04:16:39.348Z,87.74
2018-08-03T04:19:08.141Z,86.82
2018-08-03T04:21:37.491Z,86.07
2018-08-03T04:24:06.059Z,87.56
2018-08-03T04:26:34.597Z,88.75
2018-08-03T04:29:03.136Z,88.25
2018-08-03T04:31:31.633Z,86.22
2018-08-03T04:34:00.194Z,86.47
2018-08-03T04:36:28.709Z,85.94
2018-08-03T04:38:57.253Z,86.28
2018-08-03T04:41:25.788Z,86.72
2018-08-03T04:43:54.321Z,86.82
2018-08-03T04:46:22.893Z,86.22
2018-08-03T04:48:51.400Z,87.46
2018-08-03T04:51:19.959Z,87.92
2018-08-03T04:53:48.456Z,87.26
2018-08-03T04:56:16.997Z,85.58
2018-08-03T04:58:45.497Z,86.76
2018-08-03T05:01:14.649Z,86.19
2018-08-03T05:03:43.147Z,86.77
2018-08-03T05:06:11.709Z,85.93
2018-08-03T05:08:40.254Z,86.16
2018-08-03T05:11:08.829Z,86.82
2018-08-03T05:13:37.368Z,87.79
2018-08-03T05:16:05.897Z,85.81
2018-08-03T05:18:34.562Z,87.07
2018-08-03T05:21:03.108Z,87.83
2018-08-03T05:23:31.642Z,89.68
2018-08-03T05:26:00.452Z,86.76
2018-08-03T05:28:29.140Z,86.32
2018-08-03T05:30:57.712Z,86.38
2018-08-03T05:33:26.608Z,85.76
2018-08-03T05:35:55.780Z,85.11
2018-08-03T05:38:24.256Z,85.17
2018-08-03T05:40:52.792Z,84.62
2018-08-03T05:43:21.308Z,83.22
2018-08-03T05:45:49.973Z,82.82
2018-08-03T05:48:18.488Z,83.09
2018-08-03T05:50:47.043Z,82.35
2018-08-03T05:53:15.612Z,81.12
2018-08-03T05:55:44.884Z,80.75
2018-08-03T05:58:13.398Z,79.32
2018-08-03T06:00:41.969Z,80.71
2018-08-03T06:03:10.784Z,79.49
2018-08-03T06:05:39.675Z,78.15
2018-08-03T06:08:08.216Z,77.57
2018-08-03T06:10:36.772Z,78.67
2018-08-03T06:13:05.301Z,80.70
2018-08-03T06:15:33.899Z,80.31
2018-08-03T06:18:02.425Z,78.93
2018-08-03T06:20:31.027Z,78.10
2018-08-03T06:22:59.528Z,77.63
2018-08-03T06:25:28.070Z,78.18
2018-08-03T06:27:56.572Z,77.52
2018-08-03T06:30:25.076Z,77.82
2018-08-03T06:32:53.613Z,77.31
2018-08-03T06:35:22.116Z,78.17
2018-08-03T06:37:50.952Z,77.11
2018-08-03T06:40:19.462Z,76.77
2018-08-03T06:42:48.005Z,77.15
2018-08-03T06:45:16.546Z,76.66
2018-08-03T06:47:45.217Z,75.66
2018-08-03T06:50:13.991Z,76.72
2018-08-03T06:52:42.539Z,76.30
2018-08-03T06:55:11.044Z,74.96
2018-08-03T06:57:39.583Z,74.66
2018-08-03T07:00:08.384Z,74.08
2018-08-03T07:02:36.956Z,72.55
2018-08-03T07:05:05.465Z,72.21
2018-08-03T07:07:34.024Z,70.79
2018-08-03T07:10:02.649Z,71.55
2018-08-03T07:12:31.380Z,70.59
2018-08-03T07:15:02.923Z,71.58
2018-08-03T07:17:31.469Z,70.24
2018-08-03T07:20:00.482Z,70.96
2018-08-03T07:22:29.170Z,70.01
2018-08-03T07:24:57.676Z,70.23
2018-08-03T07:27:26.476Z,69.26
2018-08-03T07:29:55.204Z,69.27
2018-08-03T07:32:23.848Z,69.73
2018-08-03T07:34:52.676Z,67.78
2018-08-03T07:37:24.394Z,67.69
2018-08-03T07:39:53.946Z,67.45
2018-08-03T07:42:24.281Z,68.07
2018-08-03T07:44:54.974Z,66.53
2018-08-03T07:47:24.861Z,66.07
2018-08-03T07:49:58.987Z,65.30
2018-08-03T07:52:27.746Z,66.03
2018-08-03T07:54:56.253Z,64.94
2018-08-03T07:57:24.820Z,64.50
2018-08-03T07:59:53.677Z,64.45
2018-08-03T08:02:22.341Z,64.61
2018-08-03T08:04:50.865Z,64.26
2018-08-03T08:07:19.512Z,63.91
2018-08-03T08:09:58.533Z,62.79
2018-08-03T08:12:27.248Z,61.70
2018-08-03T08:14:56.216Z,62.46
2018-08-03T08:17:24.752Z,62.05
2018-08-03T08:19:56.391Z,62.48
2018-08-03T08:22:25.040Z,62.40
2018-08-03T08:24:53.594Z,60.76
2018-08-03T08:27:22.249Z,59.16
2018-08-03T08:29:50.750Z,59.94
2018-08-03T08:32:29.129Z,60.88
2018-08-03T08:35:00.304Z,60.61
2018-08-03T08:37:29.169Z,60.66
2018-08-03T08:39:58.545Z,58.68
2018-08-03T08:42:27.120Z,58.64
2018-08-03T08:44:59.359Z,59.52
2018-08-03T08:47:27.905Z,58.14
2018-08-03T08:49:56.484Z,57.41
2018-08-03T08:52:25.104Z,57.05
2018-08-03T08:54:53.757Z,56.84
2018-08-03T08:57:22.616Z,58.50
2018-08-03T08:59:51.448Z,57.33
2018-08-03T09:02:21.554Z,56.64
2018-08-03T09:04:50.053Z,55.78
2018-08-03T09:07:18.577Z,56.02
2018-08-03T09:09:47.645Z,55.29
2018-08-03T09:12:16.159Z,55.80
2018-08-03T09:14:46.173Z,55.76
2018-08-03T09:17:15.780Z,55.15
2018-08-03T09:19:44.307Z,56.62
2018-08-03T09:22:23.491Z,55.95
2018-08-03T09:24:52.228Z,54.45
2018-08-03T09:27:20.815Z,55.67
2018-08-03T09:29:49.348Z,54.55
2018-08-03T09:32:17.849Z,55.09
2018-08-03T09:34:46.389Z,53.46
2018-08-03T09:37:15.711Z,53.98
2018-08-03T09:39:44.361Z,52.56
2018-08-03T09:42:18.233Z,51.60
2018-08-03T09:44:47.096Z,52.18
2018-08-03T09:47:15.948Z,51.31
2018-08-03T09:49:44.509Z,50.78
2018-08-03T09:52:21.708Z,49.26
2018-08-03T09:54:50.781Z,51.15
2018-08-03T09:57:20.029Z,50.75
2018-08-03T09:59:48.686Z,51.40
2018-08-03T10:02:17.404Z,50.36
2018-08-03T10:04:46.448Z,49.73
2018-08-03T10:07:15.009Z,49.22
2018-08-03T10:09:49.730Z,50.14
2018-08-03T10:12:18.563Z,48.28
2018-08-03T10:14:47.407Z,49.33
2018-08-03T10:17:16.864Z,47.75
2018-08-03T10:19:46.441Z,47.60
2018-08-03T10:22:14.933Z,48.11
2018-08-03T10:24:46.670Z,48.02
2018-08-03T10:27:15.181Z,46.24
2018-08-03T10:29:43.762Z,46.74
2018-08-03T10:32:12.313Z,45.72
2018-08-03T10:34:40.852Z,45.15
2018-08-03T10:37:09.358Z,44.96
2018-08-03T10:39:37.903Z,44.77
2018-08-03T10:42:06.413Z,44.27
2018-08-03T10:44:35.224Z,43.57
2018-08-03T10:47:03.772Z,43.05
2018-08-03T10:49:32.276Z,43.80
2018-08-03T10:52:00.796Z,42.35
2018-08-03T10:54:29.333Z,42.99
2018-08-03T10:56:57.856Z,43.39
2018-08-03T10:59:26.380Z,42.76
2018-08-03T11:01:55.240Z,42.47
2018-08-03T11:04:23.788Z,42.77
2018-08-03T11:06:52.367Z,41.41
2018-08-03T11:09:20.863Z,42.29
2018-08-03T11:11:49.365Z,41.04
2018-08-03T11:14:17.904Z,40.70
2018-08-03T11:16:46.686Z,40.85
2018-08-03T11:19:15.531Z,42.83
2018-08-03T11:21:44.025Z,42.11
2018-08-03T11:24:12.636Z,41.59
2018-08-03T11:26:41.100Z,42.11
2018-08-03T11:29:09.638Z,43.04
2018-08-03T11:31:38.141Z,40.89
2018-08-03T11:34:07.055Z,41.14
2018-08-03T11:36:35.603Z,41.13
2018-08-03T11:39:04.284Z,40.64
2018-08-03T11:41:32.816Z,40.66
2018-08-03T11:44:01.316Z,40.88
2018-08-03T11:46:29.889Z,40.58
2018-08-03T11:48:58.424Z,41.63
2018-08-03T11:51:27.196Z,38.93
2018-08-03T11:53:55.992Z,38.16
2018-08-03T11:56:24.529Z,40.21
2018-08-03T11:58:53.057Z,41.56
2018-08-03T12:01:21.596Z,42.83
2018-08-03T12:03:50.362Z,43.00
2018-08-03T12:06:18.929Z,40.44
2018-08-03T12:08:47.432Z,38.53
2018-08-03T12:11:16.876Z,38.74
2018-08-03T12:13:45.444Z,39.74
2018-08-03T12:16:14.457Z,39.54
2018-08-03T12:18:42.977Z,37.89
2018-08-03T12:21:11.504Z,37.10
2018-08-03T12:23:40.037Z,37.44
2018-08-03T12:26:08.580Z,37.99
2018-08-03T12:28:37.115Z,39.22
2018-08-03T12:31:09.192Z,37.71
2018-08-03T12:33:37.704Z,38.55
2018-08-03T12:36:06.615Z,37.38
2018-08-03T12:38:35.113Z,38.56
2018-08-03T12:41:04.047Z,36.06
2018-08-03T12:43:32.556Z,36.93
2018-08-03T12:46:01.184Z,38.03
2018-08-03T12:48:29.653Z,37.73
2018-08-03T12:50:58.181Z,37.44
2018-08-03T12:53:28.265Z,36.45
2018-08-03T12:55:56.832Z,36.17
2018-08-03T12:58:25.362Z,35.55
2018-08-03T13:00:53.913Z,34.08
2018-08-03T13:03:22.416Z,34.55
2018-08-03T13:05:51.017Z,37.21
2018-08-03T13:08:19.628Z,35.02
2018-08-03T13:10:48.102Z,35.95
2018-08-03T13:13:17.194Z,36.21
2018-08-03T13:15:45.792Z,36.77
2018-08-03T13:18:14.284Z,36.35
2018-08-03T13:20:43.223Z,35.28
2018-08-03T13:23:12.479Z,33.81
2018-08-03T13:25:41.024Z,34.89
2018-08-03T13:28:09.555Z,33.72
2018-08-03T13:30:38.112Z,35.33
2018-08-03T13:33:06.924Z,33.98
2018-08-03T13:35:36.109Z,33.55
2018-08-03T13:38:10.139Z,35.09
2018-08-03T13:40:38.871Z,34.53
2018-08-03T13:43:08.188Z,34.44
2018-08-03T13:45:36.720Z,33.32
2018-08-03T13:48:05.281Z,34.91
2018-08-03T13:50:33.780Z,32.75
2018-08-03T13:53:08.987Z,32.97
2018-08-03T13:55:41.615Z,34.66
2018-08-03T13:58:10.353Z,34.03
2018-08-03T14:00:43.677Z,33.68
2018-08-03T14:03:12.232Z,34.43
2018-08-03T14:05:41.380Z,34.09
2018-08-03T14:08:09.993Z,34.41
2018-08-03T14:10:38.494Z,34.89
2018-08-03T14:13:07.032Z,35.95
2018-08-03T14:15:35.536Z,34.95
2018-08-03T14:18:04.745Z,32.47
2018-08-03T14:20:35.203Z,33.17
2018-08-03T14:23:05.145Z,33.91
2018-08-03T14:25:33.788Z,33.63
2018-08-03T14:28:06.435Z,32.57
2018-08-03T14:30:36.518Z,32.42
2018-08-03T14:33:05.442Z,31.04
2018-08-03T14:35:34.255Z,32.21
2018-08-03T14:38:02.842Z,31.34
2018-08-03T14:40:32.885Z,31.84
2018-08-03T14:43:02.770Z,32.02
2018-08-03T14:45:31.506Z,31.48
2018-08-03T14:48:00.042Z,32.84
2018-08-03T14:50:29.005Z,31.76
2018-08-03T14:52:57.860Z,31.49
2018-08-03T14:55:26.942Z,31.65
2018-08-03T14:57:55.683Z,30.11
2018-08-03T15:00:24.524Z,28.27
2018-08-03T15:02:56.287Z,28.44
2018-08-03T15:05:27.717Z,29.96
2018-08-03T15:07:56.814Z,30.46
2018-08-03T15:10:25.923Z,30.48
2018-08-03T15:12:54.473Z,30.32
2018-08-03T15:15:23.005Z,29.16
2018-08-03T15:17:51.557Z,30.12
2018-08-03T15:20:20.069Z,29.73
2018-08-03T15:22:48.797Z,30.94
2018-08-03T15:25:18.247Z,32.19
2018-08-03T15:27:46.780Z,32.05
2018-08-03T15:30:15.416Z,31.49
2018-08-03T15:32:45.264Z,30.26
2018-08-03T15:35:13.872Z,30.80
2018-08-03T15:37:42.500Z,29.74
2018-08-03T15:40:11.109Z,29.47
2018-08-03T15:42:39.656Z,30.48
2018-08-03T15:45:10.525Z,30.01
2018-08-03T15:47:39.923Z,29.17
2018-08-03T15:50:08.877Z,30.55
2018-08-03T15:52:37.629Z,30.18
2018-08-03T15:55:06.348Z,31.04
2018-08-03T15:57:35.340Z,31.96
2018-08-03T16:00:05.022Z,29.22
2018-08-03T16:02:33.527Z,29.68
2018-08-03T16:05:02.157Z,29.28
2018-08-03T16:07:30.892Z,31.09
2018-08-03T16:09:59.725Z,30.02
2018-08-03T16:12:28.304Z,30.15
2018-08-03T16:14:57.531Z,29.02
2018-08-03T16:17:26.436Z,29.24
2018-08-03T16:19:55.056Z,29.14
2018-08-03T16:22:23.596Z,27.86
2018-08-03T16:24:52.125Z,27.17
2018-08-03T16:27:20.680Z,27.53
2018-08-03T16:29:49.412Z,27.07
2018-08-03T16:32:18.652Z,27.03
2018-08-03T16:34:47.415Z,27.26
2018-08-03T16:37:15.972Z,26.31
2018-08-03T16:39:44.637Z,26.63
2018-08-03T16:42:13.160Z,26.48
2018-08-03T16:44:41.748Z,25.85
2018-08-03T16:47:10.272Z,26.30
2018-08-03T16:49:40.042Z,26.33
2018-08-03T16:52:14.521Z,26.83
2018-08-03T16:54:43.292Z,27.23
2018-08-03T16:57:11.884Z,27.01
2018-08-03T16:59:40.445Z,26.49
2018-08-03T17:02:11.944Z,27.39
2018-08-03T17:04:40.534Z,27.59
2018-08-03T17:07:09.116Z,28.42
2018-08-03T17:09:37.648Z,27.69
2018-08-03T17:12:06.170Z,25.94
2018-08-03T17:14:34.697Z,22.90
2018-08-03T17:17:03.204Z,21.93
2018-08-03T17:19:31.757Z,22.06
2018-08-03T17:22:00.252Z,21.05
2018-08-03T17:24:28.813Z,20.19
2018-08-03T17:26:57.333Z,24.58
2018-08-03T17:29:25.864Z,22.16
2018-08-03T17:31:54.416Z,22.75
2018-08-03T17:34:22.957Z,22.61
2018-08-03T17:36:51.504Z,22.20
2018-08-03T17:39:20.041Z,20.89
2018-08-03T17:41:48.705Z,21.82
2018-08-03T17:44:17.335Z,22.77
2018-08-03T17:46:45.856Z,23.12
2018-08-03T17:49:14.402Z,23.16
2018-08-03T17:51:42.927Z,23.29
2018-08-03T17:54:11.488Z,25.49
2018-08-03T17:56:42.154Z,25.04
2018-08-03T17:59:12.689Z,26.23
2018-08-03T18:01:42.824Z,25.58
2018-08-03T18:04:11.440Z,27.80
2018-08-03T18:06:40.273Z,29.09
2018-08-03T18:09:09.664Z,28.14
2018-08-03T18:11:38.628Z,32.00
2018-08-03T18:14:07.160Z,32.04
2018-08-03T18:16:35.706Z,33.15
2018-08-03T18:19:05.008Z,34.82
2018-08-03T18:21:33.932Z,35.07
2018-08-03T18:24:02.449Z,34.70
2018-08-03T18:26:36.477Z,37.12
2018-08-03T18:29:05.183Z,35.87
2018-08-03T18:31:33.648Z,37.68
2018-08-03T18:34:02.186Z,40.14
2018-08-03T18:36:30.743Z,38.11
2018-08-03T18:38:59.260Z,41.32
2018-08-03T18:41:27.801Z,41.20
2018-08-03T18:43:56.312Z,41.43
2018-08-03T18:46:24.886Z,45.33
2018-08-03T18:48:53.395Z,46.83
2018-08-03T18:51:22.216Z,46.26
2018-08-03T18:53:50.732Z,48.76
2018-08-03T18:56:19.277Z,49.54
2018-08-03T18:58:47.793Z,49.07
2018-08-03T19:01:16.344Z,48.45
2018-08-03T19:03:44.856Z,48.92
2018-08-03T19:06:13.399Z,49.10
2018-08-03T19:08:41.892Z,50.67
2018-08-03T19:11:10.419Z,48.94
2018-08-03T19:13:38.945Z,50.52
2018-08-03T19:16:09.037Z,52.08
2018-08-03T19:18:40.971Z,54.01
2018-08-03T19:21:12.968Z,55.01
2018-08-03T19:23:43.805Z,54.76
2018-08-03T19:26:15.462Z,53.77
2018-08-03T19:28:46.826Z,54.29
2018-08-03T19:31:17.556Z,54.87
2018-08-03T19:33:47.477Z,56.80
2018-08-03T19:36:20.419Z,56.90
2018-08-03T19:38:53.214Z,54.80
2018-08-03T19:41:25.965Z,55.26
2018-08-03T19:43:56.784Z,55.26
2018-08-03T19:46:29.615Z,55.37
2018-08-03T19:49:02.995Z,55.39
2018-08-03T19:51:34.476Z,56.05
2018-08-03T19:54:05.109Z,57.20
2018-08-03T19:56:36.564Z,58.96
2018-08-03T19:59:07.968Z,59.21
2018-08-03T20:01:45.077Z,58.81
2018-08-03T20:04:18.164Z,59.67
2018-08-03T20:06:50.219Z,60.11
2018-08-03T20:09:25.969Z,60.64
2018-08-03T20:11:59.144Z,60.67
2018-08-03T20:14:31.146Z,60.83
2018-08-03T20:17:03.181Z,62.27
2018-08-03T20:19:36.353Z,60.00
2018-08-03T20:22:18.061Z,60.90
2018-08-03T20:24:47.253Z,60.09
2018-08-03T20:27:16.400Z,60.76
2018-08-03T20:29:45.368Z,60.47
2018-08-03T20:32:14.005Z,62.70
2018-08-03T20:34:42.516Z,63.50
2018-08-03T20:37:11.083Z,62.94
2018-08-03T20:39:39.615Z,61.49
2018-08-03T20:42:08.497Z,61.71
2018-08-03T20:44:37.039Z,62.66
2018-08-03T20:47:05.588Z,62.78
2018-08-03T20:49:34.105Z,63.57
2018-08-03T20:52:02.707Z,64.84
2018-08-03T20:54:31.184Z,64.89
2018-08-03T20:56:59.713Z,65.17
2018-08-03T20:59:28.232Z,64.62
2018-08-03T21:01:56.778Z,65.18
2018-08-03T21:04:25.323Z,63.74
2018-08-03T21:06:53.857Z,64.63
2018-08-03T21:09:22.360Z,66.17
2018-08-03T21:11:51.176Z,65.90
2018-08-03T21:14:20.101Z,68.38
2018-08-03T21:16:48.655Z,67.58
2018-08-03T21:19:17.161Z,67.27
2018-08-03T21:21:45.668Z,66.47
2018-08-03T21:24:14.201Z,65.51
2018-08-03T21:26:43.096Z,68.44
2018-08-03T21:29:18.906Z,68.91
2018-08-03T21:31:47.853Z,70.22
2018-08-03T21:34:17.056Z,71.47
2018-08-03T21:36:46.214Z,70.91
2018-08-03T21:39:15.539Z,69.58
2018-08-03T21:41:44.917Z,70.67
2018-08-03T21:44:14.455Z,70.99
2018-08-03T21:46:43.824Z,70.15
2018-08-03T21:49:13.384Z,68.65
2018-08-03T21:51:41.888Z,67.89
2018-08-03T21:54:10.816Z,68.46
2018-08-03T21:56:39.380Z,68.95
2018-08-03T21:59:09.103Z,68.70
2018-08-03T22:01:38.745Z,68.71
2018-08-03T22:04:08.535Z,68.24
2018-08-03T22:06:38.388Z,69.46
2018-08-03T22:09:10.346Z,69.40
2018-08-03T22:11:39.032Z,70.30
2018-08-03T22:14:07.892Z,70.24
2018-08-03T22:16:36.397Z,72.46
2018-08-03T22:19:05.936Z,73.66
2018-08-03T22:21:36.122Z,73.78
2018-08-03T22:24:05.682Z,72.04
2018-08-03T22:26:35.253Z,72.14
2018-08-03T22:29:04.834Z,71.95
2018-08-03T22:31:34.648Z,72.03
2018-08-03T22:34:04.416Z,72.15
2018-08-03T22:36:34.093Z,72.81
2018-08-03T22:39:05.613Z,74.51
2018-08-03T22:41:35.343Z,75.34
2018-08-03T22:44:05.208Z,75.04
2018-08-03T22:46:34.151Z,75.15
2018-08-03T22:49:03.937Z,75.82
2018-08-03T22:51:33.098Z,75.48
2018-08-03T22:54:01.642Z,76.44
2018-08-03T22:56:30.144Z,75.99
2018-08-03T22:58:58.680Z,78.39
2018-08-03T23:01:27.620Z,76.66
2018-08-03T23:03:56.913Z,76.01
2018-08-03T23:06:26.898Z,75.14
2018-08-03T23:08:56.188Z,73.58
2018-08-03T23:11:25.019Z,76.03
2018-08-03T23:13:55.079Z,75.43
2018-08-03T23:16:23.884Z,75.62
2018-08-03T23:18:53.220Z,76.43
2018-08-03T23:21:22.727Z,75.94
2018-08-03T23:23:52.344Z,76.44
2018-08-03T23:26:20.896Z,75.57
2018-08-03T23:28:49.434Z,74.28
2018-08-03T23:31:17.940Z,73.89
2018-08-03T23:33:46.473Z,75.20
2018-08-03T23:36:17.234Z,76.58
2018-08-03T23:39:03.239Z,77.77
2018-08-03T23:41:37.949Z,75.82
2018-08-03T23:44:15.595Z,75.68
2018-08-03T23:46:50.398Z,74.49
2018-08-03T23:49:31.295Z,75.17
2018-08-03T23:52:07.130Z,75.98
2018-08-03T23:57:31.465Z,76.03
